Terminal Aerodrome Forecast
Issued by NWS

Home | Current Version | Previous Version | Text Only | Print | Product List | Glossary Off
Versions: 1 2 3 4 5 6 7 8 9 10 11 12 13 14 15 16 17 18

000
FTUS42 KMHX 250100 AAA
TAFOAJ
TAF AMD
KOAJ 250136Z 2502/2524 19008KT P6SM VCSH OVC100
     FM250300 24015KT 5SM BR VCSH OVC020
     FM251200 28012G17KT P6SM BKN030
     FM251600 29010KT P6SM SCT250
      AMD LTD TO CLD VIS AND WIND=

USA.gov is the U.S. government's official web portal to all federal, state and local government web resources and services.